Time;durP1;ratioP1;P1;durP2;ratioP2;P2;SDS_P1;SDS_P2;PMS_P1;PMS_P2;Temp;Humidity;BMP_temperature;BMP_pressure;BME280_temperature;BME280_humidity;BME280_pressure;Samples;Min_cycle;Max_cycle;Signal;HPM_P1;HPM_P2
2023/09/14 00:00:21;;;;;;;4.57;2.50;;;16.40;99.90;;;;;;4993433;28;20112;-87
2023/09/14 00:02:47;;;;;;;3.35;2.22;;;16.40;99.90;;;;;;4991459;28;20029;-86
2023/09/14 00:05:12;;;;;;;3.95;2.58;;;16.40;99.90;;;;;;4992593;28;20500;-88
2023/09/14 00:07:38;;;;;;;4.10;2.40;;;16.30;99.90;;;;;;4992615;28;20026;-87
2023/09/14 00:10:04;;;;;;;3.05;2.70;;;16.30;99.90;;;;;;4992454;28;20517;-87
2023/09/14 00:12:29;;;;;;;7.80;2.40;;;16.30;99.90;;;;;;4992596;28;20391;-87
2023/09/14 00:14:55;;;;;;;2.67;2.47;;;16.30;99.90;;;;;;4993440;28;20030;-85
2023/09/14 00:17:21;;;;;;;5.30;2.60;;;16.20;99.90;;;;;;4990150;28;20022;-88
2023/09/14 00:19:46;;;;;;;3.05;2.30;;;16.20;99.90;;;;;;4989929;28;20046;-87
2023/09/14 00:22:12;;;;;;;6.05;3.05;;;16.20;99.90;;;;;;4991141;28;20030;-89
2023/09/14 00:24:37;;;;;;;4.95;2.70;;;16.30;99.90;;;;;;4990482;28;20046;-85
2023/09/14 00:27:03;;;;;;;3.00;2.47;;;16.30;99.90;;;;;;4992219;28;20019;-86
2023/09/14 00:29:29;;;;;;;6.35;3.33;;;16.20;99.90;;;;;;4990865;28;20560;-86
2023/09/14 00:31:55;;;;;;;6.35;3.60;;;16.30;99.90;;;;;;4991828;28;20042;-86
2023/09/14 00:34:21;;;;;;;5.90;3.28;;;16.20;99.90;;;;;;4991463;28;20401;-86
2023/09/14 00:36:46;;;;;;;4.13;2.67;;;16.20;99.90;;;;;;4992119;28;20040;-88
2023/09/14 00:39:12;;;;;;;4.97;3.00;;;16.20;99.90;;;;;;4991964;28;20425;-84
2023/09/14 00:41:37;;;;;;;4.78;3.10;;;16.20;99.90;;;;;;4990850;28;20084;-87
2023/09/14 00:44:03;;;;;;;4.18;2.90;;;16.20;99.90;;;;;;4990775;28;20022;-86
2023/09/14 00:46:29;;;;;;;3.20;2.90;;;16.20;99.90;;;;;;4992029;28;20061;-86
2023/09/14 00:48:56;;;;;;;6.47;3.58;;;16.10;99.90;;;;;;4990524;28;20026;-87
2023/09/14 00:51:22;;;;;;;5.70;3.65;;;16.10;99.90;;;;;;4991870;28;20038;-88
2023/09/14 00:53:50;;;;;;;5.45;3.40;;;16.00;99.90;;;;;;4990536;28;20274;-87
2023/09/14 00:56:16;;;;;;;5.03;3.15;;;16.00;99.90;;;;;;4991733;28;20050;-86
2023/09/14 00:58:42;;;;;;;4.65;2.97;;;16.10;99.90;;;;;;4991672;28;20031;-85
2023/09/14 01:01:08;;;;;;;3.47;2.80;;;16.10;99.90;;;;;;4990377;28;20097;-88
2023/09/14 01:03:33;;;;;;;4.90;3.20;;;16.10;99.90;;;;;;4989469;28;20011;-86
2023/09/14 01:05:59;;;;;;;5.95;3.53;;;16.00;99.90;;;;;;4990448;28;20034;-85
2023/09/14 01:08:25;;;;;;;6.13;3.22;;;16.00;99.90;;;;;;4992261;28;20026;-88
2023/09/14 01:10:51;;;;;;;5.57;3.28;;;16.00;99.90;;;;;;4990022;28;20033;-88
2023/09/14 01:13:48;;;;;;;6.10;3.40;;;15.90;99.90;;;;;;4991244;28;20038;-86
2023/09/14 01:16:32;;;;;;;4.65;2.97;;;15.90;99.90;;;;;;4988086;28;20038;-85
2023/09/14 01:19:19;;;;;;;6.65;3.72;;;15.90;99.90;;;;;;4991191;28;20046;-85
2023/09/14 01:22:06;;;;;;;6.43;3.08;;;16.00;99.90;;;;;;4991182;28;20038;-86
2023/09/14 01:24:40;;;;;;;4.88;3.13;;;16.00;99.90;;;;;;4990888;28;20030;-84
2023/09/14 01:27:07;;;;;;;6.00;3.30;;;15.90;99.90;;;;;;4989799;28;20049;-86
2023/09/14 01:29:33;;;;;;;3.88;3.22;;;15.80;99.90;;;;;;4989111;28;20142;-87
2023/09/14 01:31:58;;;;;;;4.30;2.97;;;15.70;99.90;;;;;;4990606;28;20113;-85
2023/09/14 01:34:24;;;;;;;5.43;3.00;;;15.80;99.90;;;;;;4990921;28;20039;-88
2023/09/14 01:36:58;;;;;;;5.10;3.00;;;15.80;99.90;;;;;;4990903;28;20030;-85
2023/09/14 01:39:25;;;;;;;6.00;3.45;;;15.90;99.90;;;;;;4990804;28;20034;-87
2023/09/14 01:41:54;;;;;;;6.18;3.22;;;15.80;99.90;;;;;;4990718;28;20056;-85
2023/09/14 01:44:27;;;;;;;6.00;3.00;;;15.70;99.90;;;;;;4990894;28;20137;-87
2023/09/14 01:46:54;;;;;;;3.83;3.05;;;15.80;99.90;;;;;;4989801;28;20093;-88
2023/09/14 01:49:20;;;;;;;5.82;3.30;;;15.80;99.90;;;;;;4989476;28;20067;-85
2023/09/14 01:51:46;;;;;;;2.90;2.60;;;15.70;99.90;;;;;;4989010;28;20026;-85
2023/09/14 01:54:11;;;;;;;5.35;3.42;;;15.60;99.90;;;;;;4990285;28;20034;-85
2023/09/14 01:56:37;;;;;;;6.18;3.47;;;15.60;99.90;;;;;;4990549;28;20037;-87
2023/09/14 01:59:03;;;;;;;3.42;3.08;;;15.60;99.90;;;;;;4989292;28;20030;-87
2023/09/14 02:01:29;;;;;;;5.50;3.28;;;15.60;99.90;;;;;;4989996;28;20030;-86
2023/09/14 02:03:54;;;;;;;7.85;3.88;;;15.50;99.90;;;;;;4987741;28;20029;-87
2023/09/14 02:06:20;;;;;;;6.93;3.45;;;15.50;99.90;;;;;;4982687;28;20044;-86
2023/09/14 02:08:46;;;;;;;5.75;3.55;;;15.50;99.90;;;;;;4990633;28;20022;-87
2023/09/14 02:11:13;;;;;;;4.00;3.15;;;15.40;99.90;;;;;;4990275;28;20487;-86
2023/09/14 02:13:39;;;;;;;5.00;3.83;;;15.40;99.90;;;;;;4990493;28;20080;-85
2023/09/14 02:16:05;;;;;;;4.60;3.97;;;15.30;99.90;;;;;;4990247;28;20094;-87
2023/09/14 02:18:31;;;;;;;4.95;3.80;;;15.30;99.90;;;;;;4990874;28;20027;-88
2023/09/14 02:20:56;;;;;;;4.97;3.60;;;15.40;99.90;;;;;;4987857;28;20046;-85
2023/09/14 02:23:22;;;;;;;5.38;3.72;;;15.40;99.90;;;;;;4989961;28;20042;-84
2023/09/14 02:25:49;;;;;;;6.20;3.40;;;15.40;99.90;;;;;;4988884;28;20038;-87
2023/09/14 02:28:15;;;;;;;6.50;3.50;;;15.40;99.90;;;;;;4990103;28;20023;-85
2023/09/14 02:30:41;;;;;;;6.40;3.92;;;15.40;99.90;;;;;;4989834;28;20098;-86
2023/09/14 02:33:07;;;;;;;4.60;3.35;;;15.40;99.90;;;;;;4989911;28;20033;-84
2023/09/14 02:35:34;;;;;;;5.03;3.60;;;15.30;99.90;;;;;;4989702;28;20030;-86
2023/09/14 02:37:59;;;;;;;5.50;3.50;;;15.30;99.90;;;;;;4990142;28;20077;-86
2023/09/14 02:40:25;;;;;;;7.13;3.42;;;15.30;99.90;;;;;;4989936;28;20050;-89
2023/09/14 02:42:50;;;;;;;5.78;3.75;;;15.30;99.90;;;;;;4988630;28;20024;-86
2023/09/14 02:45:16;;;;;;;7.20;3.60;;;15.30;99.90;;;;;;4989177;28;20482;-87
2023/09/14 02:47:41;;;;;;;3.92;3.22;;;15.30;99.90;;;;;;4989878;28;20044;-88
2023/09/14 02:50:07;;;;;;;6.32;3.72;;;15.30;99.90;;;;;;4989875;28;20035;-86
2023/09/14 02:52:33;;;;;;;4.95;3.70;;;15.30;99.90;;;;;;4989552;28;20030;-87
2023/09/14 02:54:59;;;;;;;3.50;3.20;;;15.30;99.90;;;;;;4989541;28;20030;-87
2023/09/14 02:57:25;;;;;;;5.40;3.50;;;15.30;99.90;;;;;;4988798;28;20653;-88
2023/09/14 02:59:56;;;;;;;4.70;3.47;;;15.30;99.90;;;;;;4977048;28;20046;-85
2023/09/14 03:02:22;;;;;;;5.65;3.20;;;15.20;99.90;;;;;;4977822;28;20035;-84
2023/09/14 03:04:48;;;;;;;4.65;3.30;;;15.20;99.90;;;;;;4986393;28;20030;-84
2023/09/14 03:07:14;;;;;;;3.92;3.30;;;15.20;99.90;;;;;;4984184;28;20019;-85
2023/09/14 03:09:40;;;;;;;4.70;3.17;;;15.20;99.90;;;;;;4993315;28;20479;-85
2023/09/14 03:12:06;;;;;;;3.78;2.85;;;15.20;99.90;;;;;;5008823;28;20086;-85
2023/09/14 03:14:32;;;;;;;3.38;2.80;;;15.20;99.90;;;;;;5012721;28;20030;-85
2023/09/14 03:16:58;;;;;;;3.40;2.83;;;15.30;99.90;;;;;;5012545;28;20037;-88
2023/09/14 03:19:24;;;;;;;4.45;3.10;;;15.30;99.90;;;;;;5011798;28;20033;-86
2023/09/14 03:21:49;;;;;;;4.57;3.17;;;15.20;99.90;;;;;;4999833;28;20038;-84
2023/09/14 03:24:15;;;;;;;7.38;3.50;;;15.10;99.90;;;;;;4983115;28;20081;-86
2023/09/14 03:26:41;;;;;;;4.45;3.38;;;15.10;99.90;;;;;;4990959;28;20081;-86
2023/09/14 03:29:07;;;;;;;4.80;3.25;;;15.10;99.90;;;;;;4982757;28;20019;-87
2023/09/14 03:31:32;;;;;;;4.07;3.10;;;15.10;99.90;;;;;;4992174;28;20565;-85
2023/09/14 03:33:58;;;;;;;5.35;3.28;;;15.10;99.90;;;;;;4983417;28;20121;-85
2023/09/14 03:36:24;;;;;;;5.00;3.15;;;15.00;99.90;;;;;;4989511;28;20038;-87
2023/09/14 03:38:50;;;;;;;4.25;2.58;;;15.10;99.90;;;;;;4991320;28;20578;-86
2023/09/14 03:41:15;;;;;;;8.15;3.13;;;15.10;99.90;;;;;;4989940;28;20121;-86
2023/09/14 03:43:41;;;;;;;6.45;3.50;;;15.10;99.90;;;;;;4990778;28;20085;-87
2023/09/14 03:46:08;;;;;;;5.32;3.17;;;15.10;99.90;;;;;;4991554;28;20124;-84
2023/09/14 03:48:34;;;;;;;6.78;3.97;;;15.10;99.90;;;;;;4991574;28;20482;-87
2023/09/14 03:51:00;;;;;;;5.35;3.60;;;15.10;99.90;;;;;;4992859;28;20029;-87
2023/09/14 03:53:27;;;;;;;5.32;2.92;;;15.20;99.90;;;;;;4990893;28;20035;-85
2023/09/14 03:55:56;;;;;;;5.00;3.15;;;15.30;99.90;;;;;;4989592;28;20462;-84
2023/09/14 03:58:23;;;;;;;7.95;3.67;;;15.20;99.90;;;;;;5005748;28;20457;-85
2023/09/14 04:00:49;;;;;;;5.65;3.15;;;15.10;99.90;;;;;;4999929;28;20508;-87
2023/09/14 04:03:16;;;;;;;9.77;3.53;;;15.00;99.90;;;;;;5012145;28;20029;-86
2023/09/14 04:05:42;;;;;;;5.67;3.40;;;15.10;99.90;;;;;;5011937;28;20088;-85
2023/09/14 04:08:07;;;;;;;8.35;3.40;;;15.10;99.90;;;;;;5011663;28;20478;-86
2023/09/14 04:10:36;;;;;;;6.28;2.97;;;15.10;99.90;;;;;;5012171;28;20100;-86
2023/09/14 04:13:23;;;;;;;5.40;3.20;;;15.10;99.90;;;;;;5002716;28;20025;-88
2023/09/14 04:15:49;;;;;;;4.23;2.43;;;15.10;99.90;;;;;;4992236;28;20099;-86
2023/09/14 04:18:14;;;;;;;3.97;2.85;;;15.00;99.90;;;;;;4991893;28;20289;-86
2023/09/14 04:20:40;;;;;;;2.53;2.30;;;15.00;99.90;;;;;;4992417;28;20490;-85
2023/09/14 04:23:05;;;;;;;3.00;2.80;;;15.10;99.90;;;;;;4991564;28;20089;-86
2023/09/14 04:25:31;;;;;;;3.97;2.80;;;15.10;99.90;;;;;;4992019;28;20022;-85
2023/09/14 04:27:57;;;;;;;3.17;2.58;;;15.10;99.90;;;;;;4992002;28;20170;-87
2023/09/14 04:30:22;;;;;;;3.67;2.83;;;15.00;99.90;;;;;;4991936;28;20022;-89
2023/09/14 04:32:48;;;;;;;2.65;2.45;;;14.90;99.90;;;;;;4991756;28;20038;-88
2023/09/14 04:35:13;;;;;;;3.25;2.40;;;14.90;99.90;;;;;;4992370;28;20113;-87
2023/09/14 04:37:39;;;;;;;4.63;2.42;;;14.90;99.90;;;;;;4990955;28;20021;-86
2023/09/14 04:40:08;;;;;;;4.22;2.67;;;14.90;99.90;;;;;;5002916;28;20046;-85
2023/09/14 04:42:34;;;;;;;3.00;2.72;;;14.90;99.90;;;;;;4997469;28;20029;-88
2023/09/14 04:45:00;;;;;;;3.10;2.50;;;14.80;99.90;;;;;;4989262;28;20258;-86
2023/09/14 04:47:25;;;;;;;3.50;2.58;;;14.70;99.90;;;;;;4990295;28;20026;-84
2023/09/14 04:49:51;;;;;;;4.40;2.38;;;14.80;99.90;;;;;;4990098;28;20030;-88
2023/09/14 04:52:17;;;;;;;2.95;2.60;;;14.80;99.90;;;;;;5011374;28;20026;-85
2023/09/14 04:54:42;;;;;;;2.85;2.55;;;14.70;99.90;;;;;;5000205;28;20030;-87
2023/09/14 04:57:08;;;;;;;3.65;2.70;;;14.70;99.90;;;;;;4991807;28;20505;-86
2023/09/14 04:59:33;;;;;;;3.58;2.83;;;14.70;99.90;;;;;;4990358;28;20053;-87
2023/09/14 05:01:59;;;;;;;2.97;2.63;;;14.60;99.90;;;;;;4990485;28;20030;-86
2023/09/14 05:04:24;;;;;;;2.90;2.70;;;14.60;99.90;;;;;;4989933;28;20437;-87
2023/09/14 05:06:50;;;;;;;2.65;2.42;;;14.50;99.90;;;;;;4978946;28;20089;-86
2023/09/14 05:09:16;;;;;;;3.13;2.67;;;14.60;99.90;;;;;;4991076;28;20030;-88
2023/09/14 05:11:42;;;;;;;5.30;2.80;;;14.50;99.90;;;;;;4991198;28;20564;-83
2023/09/14 05:14:07;;;;;;;8.32;3.30;;;14.50;99.90;;;;;;4985186;28;20025;-86
2023/09/14 05:16:33;;;;;;;6.30;3.10;;;14.50;99.90;;;;;;4996135;28;20022;-86
2023/09/14 05:18:58;;;;;;;3.72;3.25;;;14.40;99.90;;;;;;4991033;28;20030;-86
2023/09/14 05:21:24;;;;;;;3.38;3.05;;;14.40;99.90;;;;;;4991491;28;20483;-88
2023/09/14 05:23:49;;;;;;;3.13;2.90;;;14.30;99.90;;;;;;4990917;28;20116;-85
2023/09/14 05:26:15;;;;;;;3.15;2.78;;;14.30;99.90;;;;;;4989775;28;20026;-85
2023/09/14 05:28:42;;;;;;;4.55;2.78;;;14.30;99.90;;;;;;4989996;28;20033;-87
2023/09/14 05:31:08;;;;;;;5.38;3.10;;;14.40;99.90;;;;;;4991553;28;20054;-85
2023/09/14 05:33:33;;;;;;;3.47;2.70;;;14.40;99.90;;;;;;4989777;28;20065;-87
2023/09/14 05:35:59;;;;;;;3.40;2.70;;;14.40;99.90;;;;;;4991048;28;20386;-90
2023/09/14 05:38:24;;;;;;;3.20;2.40;;;14.40;99.90;;;;;;4989898;28;20026;-86
2023/09/14 05:40:52;;;;;;;5.22;2.78;;;14.40;99.90;;;;;;4990756;28;20389;-88
2023/09/14 05:43:17;;;;;;;4.55;2.53;;;14.30;99.90;;;;;;4991041;28;20101;-87
2023/09/14 05:45:43;;;;;;;4.38;2.55;;;14.20;99.90;;;;;;4989980;28;20495;-84
2023/09/14 05:48:09;;;;;;;3.65;2.83;;;14.10;99.90;;;;;;4991554;28;20030;-87
2023/09/14 05:50:35;;;;;;;3.38;2.80;;;14.10;99.90;;;;;;4990724;28;20049;-84
2023/09/14 05:53:02;;;;;;;7.00;2.80;;;14.10;99.90;;;;;;4990605;28;20069;-86
2023/09/14 05:55:27;;;;;;;3.13;2.50;;;14.10;99.90;;;;;;4990024;28;20498;-86
2023/09/14 05:57:54;;;;;;;5.80;2.10;;;14.10;99.90;;;;;;4983711;28;20034;-88
2023/09/14 06:00:20;;;;;;;2.17;1.98;;;14.20;99.90;;;;;;4969894;28;20103;-88
2023/09/14 06:02:45;;;;;;;2.22;2.03;;;14.20;99.90;;;;;;4970053;28;20019;-87
2023/09/14 06:05:11;;;;;;;5.97;1.90;;;14.20;99.90;;;;;;4970714;28;20027;-86
2023/09/14 06:07:37;;;;;;;3.63;2.00;;;14.10;99.90;;;;;;4969923;28;20471;-84
2023/09/14 06:10:03;;;;;;;2.10;1.90;;;14.00;99.90;;;;;;4970648;28;20051;-88
2023/09/14 06:12:29;;;;;;;1.63;1.52;;;14.10;99.90;;;;;;4983947;28;20030;-84
2023/09/14 06:14:56;;;;;;;1.63;1.52;;;14.20;99.90;;;;;;4988971;28;20029;-87
2023/09/14 06:17:22;;;;;;;1.60;1.50;;;14.30;99.90;;;;;;4990150;28;20398;-84
2023/09/14 06:19:47;;;;;;;5.38;1.45;;;14.30;99.90;;;;;;4988727;28;20034;-88
2023/09/14 06:22:13;;;;;;;3.10;1.50;;;14.40;99.90;;;;;;4990831;28;20049;-84
2023/09/14 06:24:38;;;;;;;5.55;1.60;;;14.40;99.90;;;;;;4988696;28;20030;-86
2023/09/14 06:27:04;;;;;;;6.15;1.90;;;14.40;99.90;;;;;;4989508;28;20026;-84
2023/09/14 06:29:30;;;;;;;1.70;1.60;;;14.50;99.90;;;;;;4989880;28;20010;-84
2023/09/14 06:31:56;;;;;;;1.50;1.40;;;14.50;99.90;;;;;;4989862;28;20113;-84
2023/09/14 06:34:21;;;;;;;1.60;1.50;;;14.50;99.90;;;;;;4989923;28;20026;-88
2023/09/14 06:36:47;;;;;;;1.88;1.55;;;14.50;99.90;;;;;;4987943;28;20442;-88
2023/09/14 06:39:13;;;;;;;1.50;1.40;;;14.50;99.90;;;;;;4990589;28;20398;-86
2023/09/14 06:41:39;;;;;;;4.03;1.40;;;14.50;99.90;;;;;;4988125;28;20072;-87
2023/09/14 06:44:05;;;;;;;1.50;1.40;;;14.50;99.90;;;;;;4987601;28;20023;-86
2023/09/14 06:46:31;;;;;;;1.70;1.50;;;14.60;99.90;;;;;;4988736;28;20080;-85
2023/09/14 06:48:56;;;;;;;1.70;1.60;;;14.60;99.90;;;;;;4990110;28;20061;-86
2023/09/14 06:51:22;;;;;;;3.08;1.50;;;14.70;99.90;;;;;;4989992;28;20027;-86
2023/09/14 06:53:48;;;;;;;1.83;1.73;;;14.80;99.90;;;;;;4989072;28;20046;-84
2023/09/14 06:56:15;;;;;;;1.92;1.35;;;14.60;99.90;;;;;;4989259;28;20033;-84
2023/09/14 06:58:40;;;;;;;1.50;1.33;;;14.70;99.90;;;;;;4988392;28;20399;-84
2023/09/14 07:01:06;;;;;;;1.80;1.30;;;14.80;99.90;;;;;;4988884;28;20486;-84
2023/09/14 07:03:34;;;;;;;2.75;1.60;;;14.90;99.90;;;;;;4989761;28;20033;-84
2023/09/14 07:06:00;;;;;;;1.50;1.40;;;14.90;99.90;;;;;;4989567;28;20026;-84
2023/09/14 07:08:25;;;;;;;1.58;1.40;;;15.00;99.90;;;;;;4988704;28;20089;-87
2023/09/14 07:10:52;;;;;;;5.07;1.48;;;15.10;99.90;;;;;;4989501;28;20022;-84
2023/09/14 07:13:18;;;;;;;3.03;1.70;;;15.20;99.90;;;;;;4987155;28;20038;-84
2023/09/14 07:15:44;;;;;;;1.95;1.50;;;15.20;99.90;;;;;;4990574;28;20026;-84
2023/09/14 07:18:26;;;;;;;2.13;1.73;;;15.20;99.90;;;;;;4989604;28;20038;-84
2023/09/14 07:20:52;;;;;;;1.75;1.60;;;15.30;99.90;;;;;;4989448;28;20121;-84
2023/09/14 07:23:19;;;;;;;4.38;1.80;;;15.30;99.90;;;;;;4987659;28;20042;-87
2023/09/14 07:25:44;;;;;;;4.10;1.70;;;15.50;99.90;;;;;;4989228;28;20030;-87
2023/09/14 07:28:11;;;;;;;3.60;2.40;;;15.50;99.90;;;;;;4989694;28;20026;-86
2023/09/14 07:30:37;;;;;;;3.50;2.30;;;15.60;99.90;;;;;;4987336;28;20037;-84
2023/09/14 07:33:03;;;;;;;2.67;1.95;;;15.70;99.90;;;;;;4988954;28;20504;-84
2023/09/14 07:35:28;;;;;;;6.03;2.65;;;15.70;99.90;;;;;;4989314;28;20022;-84
2023/09/14 07:37:54;;;;;;;8.20;2.80;;;15.80;99.90;;;;;;4989399;28;20034;-87
2023/09/14 07:40:20;;;;;;;6.78;3.25;;;15.90;99.90;;;;;;4989162;28;20117;-84
2023/09/14 07:42:45;;;;;;;5.15;3.38;;;16.00;99.90;;;;;;4988978;28;20109;-84
2023/09/14 07:45:11;;;;;;;5.15;3.08;;;16.00;99.90;;;;;;4988813;28;20482;-83
2023/09/14 07:47:36;;;;;;;5.18;3.35;;;16.00;99.90;;;;;;4988210;28;20030;-88
2023/09/14 07:50:02;;;;;;;10.20;3.65;;;16.00;99.90;;;;;;4988097;28;20386;-84
2023/09/14 07:52:28;;;;;;;7.68;3.72;;;16.00;99.90;;;;;;4990173;28;20031;-87
2023/09/14 07:54:54;;;;;;;35.28;4.22;;;16.00;99.90;;;;;;4991659;28;20034;-84
2023/09/14 07:57:20;;;;;;;6.60;4.30;;;16.00;99.90;;;;;;4993678;28;20030;-87
2023/09/14 07:59:46;;;;;;;6.25;4.32;;;16.20;99.90;;;;;;4993647;28;20042;-88
2023/09/14 08:02:11;;;;;;;11.98;4.10;;;16.30;99.90;;;;;;4992971;28;20150;-88
2023/09/14 08:04:37;;;;;;;6.72;4.10;;;16.40;99.90;;;;;;4991929;28;20125;-87
2023/09/14 08:07:03;;;;;;;7.47;4.45;;;16.60;99.90;;;;;;4991613;28;20026;-88
2023/09/14 08:09:28;;;;;;;5.57;4.00;;;16.80;99.90;;;;;;4992859;28;20077;-87
2023/09/14 08:11:54;;;;;;;6.85;4.00;;;16.80;99.90;;;;;;4992899;28;20498;-87
2023/09/14 08:14:19;;;;;;;7.90;4.05;;;16.90;99.90;;;;;;4993420;28;20025;-84
2023/09/14 08:16:45;;;;;;;7.85;4.15;;;17.00;99.90;;;;;;4992513;28;20030;-87
2023/09/14 08:19:10;;;;;;;5.78;3.83;;;17.10;99.90;;;;;;4992321;28;20358;-85
2023/09/14 08:21:36;;;;;;;5.95;3.90;;;17.10;99.90;;;;;;4991532;28;20560;-86
2023/09/14 08:24:02;;;;;;;7.47;3.72;;;17.10;99.90;;;;;;4990883;28;20038;-84
2023/09/14 08:26:28;;;;;;;7.22;3.53;;;17.30;99.90;;;;;;4992231;28;20026;-84
2023/09/14 08:28:53;;;;;;;7.25;3.78;;;17.50;99.90;;;;;;4991879;28;20037;-84
2023/09/14 08:31:19;;;;;;;7.70;3.58;;;17.60;99.90;;;;;;4993001;28;20026;-84
2023/09/14 08:33:44;;;;;;;8.30;3.60;;;17.60;99.90;;;;;;4990662;28;20030;-87
2023/09/14 08:36:10;;;;;;;9.23;3.80;;;17.60;99.90;;;;;;4989984;28;20054;-84
2023/09/14 08:38:36;;;;;;;7.03;3.03;;;17.70;99.90;;;;;;4991889;28;20038;-84
2023/09/14 08:41:15;;;;;;;6.72;3.60;;;17.80;99.90;;;;;;4990463;28;20034;-84
2023/09/14 08:43:42;;;;;;;4.85;2.97;;;17.80;99.90;;;;;;4991856;28;20041;-87
2023/09/14 08:46:11;;;;;;;6.28;2.83;;;18.10;99.90;;;;;;4991690;28;20157;-84
2023/09/14 08:48:42;;;;;;;6.30;2.88;;;18.00;99.90;;;;;;4991154;28;20050;-84
2023/09/14 08:51:10;;;;;;;8.93;3.13;;;18.10;99.90;;;;;;4991786;28;20026;-85
2023/09/14 08:53:37;;;;;;;8.43;3.40;;;18.20;99.90;;;;;;4991177;28;20035;-84
2023/09/14 08:56:04;;;;;;;8.57;2.88;;;18.10;99.90;;;;;;4991276;28;20501;-85
2023/09/14 08:58:31;;;;;;;7.82;2.75;;;18.20;99.90;;;;;;4991437;28;20565;-88
2023/09/14 09:00:57;;;;;;;6.53;3.10;;;18.40;99.90;;;;;;4990205;28;20398;-89
2023/09/14 09:03:22;;;;;;;4.85;2.53;;;18.30;99.90;;;;;;4991869;28;20113;-87
2023/09/14 09:05:48;;;;;;;8.45;2.40;;;18.30;99.90;;;;;;4990442;28;20145;-87
2023/09/14 09:08:17;;;;;;;6.97;2.63;;;18.40;99.90;;;;;;4990469;28;20022;-85
2023/09/14 09:10:43;;;;;;;8.52;2.50;;;18.50;99.90;;;;;;4991710;28;20030;-85
2023/09/14 09:13:09;;;;;;;7.35;2.15;;;18.50;99.90;;;;;;4990280;28;20096;-88
2023/09/14 09:15:36;;;;;;;5.68;1.95;;;18.60;99.90;;;;;;4991606;28;20530;-86
2023/09/14 09:18:07;;;;;;;5.95;2.60;;;18.90;99.90;;;;;;4991527;28;20046;-85
2023/09/14 09:20:33;;;;;;;11.40;2.80;;;19.10;99.90;;;;;;4990231;28;20044;-89
2023/09/14 09:23:00;;;;;;;5.15;2.40;;;19.30;99.90;;;;;;4989273;28;20465;-87
2023/09/14 09:25:26;;;;;;;9.27;2.70;;;18.90;99.90;;;;;;4975743;28;20384;-88
2023/09/14 09:28:00;;;;;;;10.63;2.83;;;19.00;99.90;;;;;;4985520;28;20026;-86
2023/09/14 09:30:35;;;;;;;3.78;2.10;;;19.20;99.90;;;;;;4991317;28;20038;-85
2023/09/14 09:33:02;;;;;;;8.52;2.45;;;19.30;99.90;;;;;;4990980;28;20022;-84
2023/09/14 09:35:29;;;;;;;6.43;2.13;;;19.40;99.90;;;;;;4990842;28;20054;-87
2023/09/14 09:37:58;;;;;;;6.75;2.38;;;19.50;99.90;;;;;;4991381;28;20050;-84
2023/09/14 09:40:31;;;;;;;10.82;2.70;;;19.50;99.90;;;;;;4989595;28;20038;-84
2023/09/14 09:43:03;;;;;;;9.07;2.30;;;19.50;99.90;;;;;;4989506;28;20030;-86
2023/09/14 09:45:29;;;;;;;4.35;2.10;;;19.80;99.90;;;;;;4991304;28;20371;-88
2023/09/14 09:47:55;;;;;;;7.65;2.33;;;19.70;99.90;;;;;;4991802;28;20080;-87
2023/09/14 09:50:22;;;;;;;5.57;1.92;;;19.70;99.90;;;;;;4991847;28;20105;-85
2023/09/14 09:52:49;;;;;;;7.38;2.10;;;19.60;99.90;;;;;;4990889;28;20022;-86
2023/09/14 09:55:24;;;;;;;11.93;2.30;;;19.70;99.90;;;;;;4989703;28;20097;-88
2023/09/14 09:57:58;;;;;;;9.63;2.22;;;20.00;99.90;;;;;;4986413;28;20085;-88
2023/09/14 10:00:34;;;;;;;7.40;2.10;;;20.00;99.90;;;;;;4972225;28;20030;-87
2023/09/14 10:03:01;;;;;;;5.30;2.00;;;20.00;99.90;;;;;;4971221;28;20023;-84
2023/09/14 10:05:32;;;;;;;6.93;2.13;;;20.20;99.90;;;;;;4969972;28;20499;-85
2023/09/14 10:07:58;;;;;;;6.25;1.50;;;20.30;99.90;;;;;;4970766;28;20058;-86
2023/09/14 10:10:29;;;;;;;3.40;1.75;;;20.10;99.90;;;;;;4983362;28;20019;-84
2023/09/14 10:12:56;;;;;;;5.55;2.30;;;20.00;99.90;;;;;;4990454;28;20026;-84
2023/09/14 10:15:26;;;;;;;5.13;1.98;;;20.00;99.90;;;;;;4989822;28;20026;-87
2023/09/14 10:17:54;;;;;;;2.55;1.50;;;20.10;99.90;;;;;;4989313;28;20410;-87
2023/09/14 10:20:21;;;;;;;4.85;1.70;;;20.20;99.90;;;;;;4989259;28;20494;-84
2023/09/14 10:22:47;;;;;;;5.43;1.70;;;20.30;99.90;;;;;;4988595;28;20034;-86
2023/09/14 10:25:14;;;;;;;5.20;2.00;;;20.40;99.90;;;;;;4988587;28;20038;-87
2023/09/14 10:27:41;;;;;;;6.68;2.35;;;20.60;99.90;;;;;;4987216;28;20037;-85
2023/09/14 10:30:13;;;;;;;5.63;1.80;;;20.80;99.90;;;;;;4989996;28;20034;-84
2023/09/14 10:32:39;;;;;;;6.55;1.80;;;20.50;99.90;;;;;;4989020;28;20042;-83
2023/09/14 10:35:07;;;;;;;4.82;1.98;;;20.70;99.90;;;;;;4989933;28;20022;-88
2023/09/14 10:37:34;;;;;;;4.97;1.80;;;20.90;99.90;;;;;;4989938;28;20034;-84
2023/09/14 10:40:02;;;;;;;6.38;1.95;;;20.90;99.90;;;;;;4989683;28;20114;-84
2023/09/14 10:42:27;;;;;;;;;;;21.00;99.90;;;;;;4989781;28;20022;-84
2023/09/14 10:44:53;;;;;;;3.50;1.60;;;20.90;99.90;;;;;;4987289;28;19916;-84
2023/09/14 10:47:23;;;;;;;5.47;1.70;;;20.90;99.90;;;;;;4989641;28;20022;-84
2023/09/14 10:49:50;;;;;;;2.67;1.67;;;20.60;99.90;;;;;;4989794;28;20045;-84
2023/09/14 10:52:26;;;;;;;2.40;1.40;;;20.50;99.90;;;;;;4989730;28;20026;-84
2023/09/14 10:54:52;;;;;;;4.40;1.80;;;20.70;99.90;;;;;;4988573;28;20034;-84
2023/09/14 10:57:23;;;;;;;3.20;1.48;;;20.80;99.90;;;;;;4987409;28;20030;-87
2023/09/14 10:59:54;;;;;;;4.68;1.58;;;20.90;99.90;;;;;;4988228;28;20121;-84
2023/09/14 11:02:39;;;;;;;6.45;1.70;;;21.00;99.90;;;;;;4988413;28;20045;-84
2023/09/14 11:05:11;;;;;;;2.30;1.55;;;21.00;99.90;;;;;;4989544;28;20092;-84
2023/09/14 11:07:39;;;;;;;5.20;1.77;;;21.00;99.90;;;;;;4988488;28;20026;-88
2023/09/14 11:10:06;;;;;;;6.43;1.70;;;21.00;99.90;;;;;;4989671;28;20088;-84
2023/09/14 11:12:32;;;;;;;6.10;1.88;;;21.10;99.90;;;;;;4988830;28;20053;-84
2023/09/14 11:15:12;;;;;;;4.72;1.70;;;21.20;99.90;;;;;;4990290;28;20030;-84
2023/09/14 11:17:45;;;;;;;4.53;1.60;;;21.30;99.90;;;;;;4989613;28;20483;-84
2023/09/14 11:20:19;;;;;;;6.68;1.58;;;21.50;99.90;;;;;;4989269;28;20133;-84
2023/09/14 11:22:46;;;;;;;3.28;1.55;;;21.60;99.90;;;;;;4989443;28;20037;-84
2023/09/14 11:25:30;;;;;;;4.97;1.90;;;21.60;99.90;;;;;;4989626;28;20022;-84
2023/09/14 11:27:57;;;;;;;6.60;1.67;;;21.80;99.90;;;;;;4979573;28;20375;-84
2023/09/14 11:30:24;;;;;;;3.38;1.33;;;21.80;99.90;;;;;;4973701;28;20450;-83
2023/09/14 11:32:53;;;;;;;4.85;1.60;;;21.80;99.90;;;;;;4973575;28;20077;-84
2023/09/14 11:35:45;;;;;;;4.22;1.45;;;21.70;99.90;;;;;;4973612;28;20051;-84
2023/09/14 11:38:19;;;;;;;3.20;1.38;;;21.60;99.90;;;;;;4989147;28;20482;-84
2023/09/14 11:40:46;;;;;;;4.40;1.38;;;21.50;99.90;;;;;;4991518;28;20117;-86
2023/09/14 11:43:24;;;;;;;3.22;1.40;;;21.50;99.90;;;;;;4992840;28;20014;-85
2023/09/14 11:45:55;;;;;;;5.75;1.92;;;21.50;99.90;;;;;;4992104;28;20066;-84
2023/09/14 11:48:22;;;;;;;3.05;1.50;;;21.50;99.90;;;;;;4992924;28;20454;-84
2023/09/14 11:50:50;;;;;;;4.05;1.55;;;21.70;99.90;;;;;;4991632;28;20026;-88
2023/09/14 11:53:17;;;;;;;4.70;1.50;;;21.80;99.90;;;;;;4990472;28;20023;-84
2023/09/14 11:55:44;;;;;;;5.32;1.95;;;21.80;99.90;;;;;;4990764;28;20521;-84
2023/09/14 11:58:11;;;;;;;2.85;1.55;;;21.80;99.90;;;;;;4992810;28;20050;-84
2023/09/14 12:00:39;;;;;;;6.15;1.88;;;21.80;99.90;;;;;;4991647;28;20060;-87
2023/09/14 12:03:06;;;;;;;4.40;1.98;;;21.90;99.90;;;;;;4992738;28;20026;-87
2023/09/14 12:05:32;;;;;;;5.63;1.70;;;21.90;99.90;;;;;;4992267;28;20038;-87
2023/09/14 12:07:57;;;;;;;3.20;1.70;;;21.90;99.90;;;;;;4991135;28;20019;-84
2023/09/14 12:10:26;;;;;;;4.60;1.60;;;21.80;99.90;;;;;;4992382;28;20256;-85
2023/09/14 12:12:51;;;;;;;6.45;1.58;;;21.80;99.90;;;;;;4991912;28;20382;-84
2023/09/14 12:15:20;;;;;;;3.67;1.92;;;21.90;99.90;;;;;;4992284;28;20041;-88
2023/09/14 12:17:50;;;;;;;4.72;1.50;;;21.90;99.90;;;;;;4991135;28;20023;-84
2023/09/14 12:20:16;;;;;;;2.92;1.40;;;21.90;99.90;;;;;;4992096;28;20065;-84
2023/09/14 12:22:43;;;;;;;3.53;1.58;;;21.90;99.90;;;;;;4990770;28;20018;-85
2023/09/14 12:25:09;;;;;;;3.33;1.85;;;22.00;99.90;;;;;;4991452;28;20038;-89
2023/09/14 12:27:36;;;;;;;8.48;1.73;;;22.00;99.90;;;;;;4991969;28;20482;-84
2023/09/14 12:30:07;;;;;;;3.50;1.40;;;22.20;99.90;;;;;;4992871;28;20027;-84
2023/09/14 12:32:34;;;;;;;5.90;1.80;;;21.90;99.90;;;;;;4992804;28;20018;-83
2023/09/14 12:35:01;;;;;;;3.37;1.77;;;22.00;99.90;;;;;;4992880;28;20500;-84
2023/09/14 12:37:27;;;;;;;5.97;1.80;;;22.00;99.90;;;;;;4990667;28;20064;-84
2023/09/14 12:39:53;;;;;;;3.95;1.52;;;22.00;99.90;;;;;;4990344;28;20030;-85
2023/09/14 12:42:24;;;;;;;4.13;1.70;;;21.90;99.90;;;;;;4991632;28;20070;-86
2023/09/14 12:44:52;;;;;;;6.53;1.73;;;21.90;99.90;;;;;;4991570;28;20103;-87
2023/09/14 12:47:18;;;;;;;4.53;1.63;;;22.00;99.90;;;;;;4990948;28;20045;-86